sensor_id;sensor_type;location;lat;lon;timestamp;P1;durP1;ratioP1;P2;durP2;ratioP2
38851;SDS011;24605;50.092;9.182;2022-12-19T00:02:18;56.00;;;22.88;;
38851;SDS011;24605;50.092;9.182;2022-12-19T00:04:45;53.35;;;21.02;;
38851;SDS011;24605;50.092;9.182;2022-12-19T00:07:11;49.88;;;21.13;;
38851;SDS011;24605;50.092;9.182;2022-12-19T00:09:38;55.38;;;22.08;;
38851;SDS011;24605;50.092;9.182;2022-12-19T00:12:04;48.40;;;20.10;;
38851;SDS011;24605;50.092;9.182;2022-12-19T00:14:33;55.13;;;22.63;;
38851;SDS011;24605;50.092;9.182;2022-12-19T00:16:59;53.10;;;20.23;;
38851;SDS011;24605;50.092;9.182;2022-12-19T00:19:26;53.47;;;21.15;;
38851;SDS011;24605;50.092;9.182;2022-12-19T00:21:52;55.40;;;20.77;;
38851;SDS011;24605;50.092;9.182;2022-12-19T00:24:19;50.67;;;21.17;;
38851;SDS011;24605;50.092;9.182;2022-12-19T00:26:45;45.08;;;19.63;;
38851;SDS011;24605;50.092;9.182;2022-12-19T00:29:11;47.67;;;19.45;;
38851;SDS011;24605;50.092;9.182;2022-12-19T00:31:39;49.28;;;20.95;;
38851;SDS011;24605;50.092;9.182;2022-12-19T00:34:06;50.17;;;20.30;;
38851;SDS011;24605;50.092;9.182;2022-12-19T00:36:32;48.25;;;21.33;;
38851;SDS011;24605;50.092;9.182;2022-12-19T00:39:00;43.53;;;19.08;;
38851;SDS011;24605;50.092;9.182;2022-12-19T00:41:29;45.67;;;19.20;;
38851;SDS011;24605;50.092;9.182;2022-12-19T00:43:56;56.10;;;21.42;;
38851;SDS011;24605;50.092;9.182;2022-12-19T00:46:24;54.65;;;21.13;;
38851;SDS011;24605;50.092;9.182;2022-12-19T00:48:53;57.95;;;20.95;;
38851;SDS011;24605;50.092;9.182;2022-12-19T00:51:20;52.67;;;20.77;;
38851;SDS011;24605;50.092;9.182;2022-12-19T00:53:50;51.80;;;20.42;;
38851;SDS011;24605;50.092;9.182;2022-12-19T00:56:19;53.05;;;22.25;;
38851;SDS011;24605;50.092;9.182;2022-12-19T00:58:47;51.67;;;22.27;;
38851;SDS011;24605;50.092;9.182;2022-12-19T01:01:15;61.65;;;24.20;;
38851;SDS011;24605;50.092;9.182;2022-12-19T01:03:44;61.42;;;23.38;;
38851;SDS011;24605;50.092;9.182;2022-12-19T01:06:13;60.83;;;22.27;;
38851;SDS011;24605;50.092;9.182;2022-12-19T01:08:39;61.42;;;24.77;;
38851;SDS011;24605;50.092;9.182;2022-12-19T01:11:06;56.45;;;21.10;;
38851;SDS011;24605;50.092;9.182;2022-12-19T01:13:34;54.97;;;22.10;;
38851;SDS011;24605;50.092;9.182;2022-12-19T01:16:01;54.58;;;20.40;;
38851;SDS011;24605;50.092;9.182;2022-12-19T01:18:28;54.92;;;22.80;;
38851;SDS011;24605;50.092;9.182;2022-12-19T01:20:58;53.47;;;20.52;;
38851;SDS011;24605;50.092;9.182;2022-12-19T01:23:26;50.70;;;22.15;;
38851;SDS011;24605;50.092;9.182;2022-12-19T01:25:54;54.88;;;22.33;;
38851;SDS011;24605;50.092;9.182;2022-12-19T01:28:21;54.38;;;21.25;;
38851;SDS011;24605;50.092;9.182;2022-12-19T01:30:48;55.22;;;22.88;;
38851;SDS011;24605;50.092;9.182;2022-12-19T01:33:16;59.47;;;25.45;;
38851;SDS011;24605;50.092;9.182;2022-12-19T01:35:45;59.45;;;23.67;;
38851;SDS011;24605;50.092;9.182;2022-12-19T01:38:12;56.92;;;22.67;;
38851;SDS011;24605;50.092;9.182;2022-12-19T01:40:46;52.17;;;21.38;;
38851;SDS011;24605;50.092;9.182;2022-12-19T01:43:14;55.38;;;21.40;;
38851;SDS011;24605;50.092;9.182;2022-12-19T01:45:41;47.55;;;21.38;;
38851;SDS011;24605;50.092;9.182;2022-12-19T01:48:15;51.65;;;21.83;;
38851;SDS011;24605;50.092;9.182;2022-12-19T01:50:50;55.22;;;22.75;;
38851;SDS011;24605;50.092;9.182;2022-12-19T01:53:19;51.70;;;21.02;;
38851;SDS011;24605;50.092;9.182;2022-12-19T01:55:49;53.35;;;21.40;;
38851;SDS011;24605;50.092;9.182;2022-12-19T01:58:16;54.60;;;21.88;;
38851;SDS011;24605;50.092;9.182;2022-12-19T02:00:42;45.38;;;20.98;;
38851;SDS011;24605;50.092;9.182;2022-12-19T02:03:11;53.75;;;20.63;;
38851;SDS011;24605;50.092;9.182;2022-12-19T02:05:44;49.92;;;21.20;;
38851;SDS011;24605;50.092;9.182;2022-12-19T02:08:11;47.17;;;20.02;;
38851;SDS011;24605;50.092;9.182;2022-12-19T02:10:38;46.08;;;20.45;;
38851;SDS011;24605;50.092;9.182;2022-12-19T02:13:06;51.97;;;22.27;;
38851;SDS011;24605;50.092;9.182;2022-12-19T02:15:36;49.03;;;20.20;;
38851;SDS011;24605;50.092;9.182;2022-12-19T02:18:10;51.67;;;20.73;;
38851;SDS011;24605;50.092;9.182;2022-12-19T02:21:03;46.33;;;19.90;;
38851;SDS011;24605;50.092;9.182;2022-12-19T02:23:53;48.10;;;20.63;;
38851;SDS011;24605;50.092;9.182;2022-12-19T02:26:55;45.25;;;19.67;;
38851;SDS011;24605;50.092;9.182;2022-12-19T02:32:31;50.03;;;18.98;;
38851;SDS011;24605;50.092;9.182;2022-12-19T02:35:01;48.10;;;20.88;;
38851;SDS011;24605;50.092;9.182;2022-12-19T02:37:33;52.13;;;20.05;;
38851;SDS011;24605;50.092;9.182;2022-12-19T02:40:04;49.53;;;21.17;;
38851;SDS011;24605;50.092;9.182;2022-12-19T02:42:35;56.13;;;23.80;;
38851;SDS011;24605;50.092;9.182;2022-12-19T02:45:05;47.33;;;20.30;;
38851;SDS011;24605;50.092;9.182;2022-12-19T02:47:36;49.28;;;19.58;;
38851;SDS011;24605;50.092;9.182;2022-12-19T02:50:04;49.55;;;21.23;;
38851;SDS011;24605;50.092;9.182;2022-12-19T02:52:44;52.88;;;21.20;;
38851;SDS011;24605;50.092;9.182;2022-12-19T02:55:13;54.88;;;22.52;;
38851;SDS011;24605;50.092;9.182;2022-12-19T03:00:38;52.53;;;22.98;;
38851;SDS011;24605;50.092;9.182;2022-12-19T03:03:15;53.20;;;23.10;;
38851;SDS011;24605;50.092;9.182;2022-12-19T03:05:51;56.60;;;23.70;;
38851;SDS011;24605;50.092;9.182;2022-12-19T03:08:27;54.80;;;22.58;;
38851;SDS011;24605;50.092;9.182;2022-12-19T03:11:02;55.90;;;23.38;;
38851;SDS011;24605;50.092;9.182;2022-12-19T03:13:31;51.47;;;21.95;;
38851;SDS011;24605;50.092;9.182;2022-12-19T03:16:00;51.03;;;21.58;;
38851;SDS011;24605;50.092;9.182;2022-12-19T03:18:29;58.35;;;23.17;;
38851;SDS011;24605;50.092;9.182;2022-12-19T03:21:00;58.13;;;24.23;;
38851;SDS011;24605;50.092;9.182;2022-12-19T03:23:30;57.97;;;23.48;;
38851;SDS011;24605;50.092;9.182;2022-12-19T03:25:58;54.25;;;22.65;;
38851;SDS011;24605;50.092;9.182;2022-12-19T03:28:29;53.67;;;22.30;;
38851;SDS011;24605;50.092;9.182;2022-12-19T03:33:31;53.75;;;21.08;;
38851;SDS011;24605;50.092;9.182;2022-12-19T03:35:59;54.38;;;20.77;;
38851;SDS011;24605;50.092;9.182;2022-12-19T03:38:30;52.90;;;22.00;;
38851;SDS011;24605;50.092;9.182;2022-12-19T03:40:59;56.00;;;22.38;;
38851;SDS011;24605;50.092;9.182;2022-12-19T03:43:27;54.83;;;21.63;;
38851;SDS011;24605;50.092;9.182;2022-12-19T03:45:54;53.65;;;22.40;;
38851;SDS011;24605;50.092;9.182;2022-12-19T03:48:24;50.42;;;23.02;;
38851;SDS011;24605;50.092;9.182;2022-12-19T03:50:59;61.85;;;23.85;;
38851;SDS011;24605;50.092;9.182;2022-12-19T03:53:36;56.55;;;21.52;;
38851;SDS011;24605;50.092;9.182;2022-12-19T03:56:18;52.67;;;21.33;;
38851;SDS011;24605;50.092;9.182;2022-12-19T03:58:52;55.50;;;22.48;;
38851;SDS011;24605;50.092;9.182;2022-12-19T04:01:24;52.90;;;21.73;;
38851;SDS011;24605;50.092;9.182;2022-12-19T04:03:53;50.65;;;21.77;;
38851;SDS011;24605;50.092;9.182;2022-12-19T04:06:22;55.60;;;23.02;;
38851;SDS011;24605;50.092;9.182;2022-12-19T04:08:49;54.17;;;21.55;;
38851;SDS011;24605;50.092;9.182;2022-12-19T04:11:17;54.63;;;23.20;;
38851;SDS011;24605;50.092;9.182;2022-12-19T04:13:46;53.83;;;21.90;;
38851;SDS011;24605;50.092;9.182;2022-12-19T04:16:18;58.38;;;23.08;;
38851;SDS011;24605;50.092;9.182;2022-12-19T04:18:54;57.38;;;23.05;;
38851;SDS011;24605;50.092;9.182;2022-12-19T04:21:26;54.50;;;22.48;;
38851;SDS011;24605;50.092;9.182;2022-12-19T04:23:59;50.58;;;22.02;;
38851;SDS011;24605;50.092;9.182;2022-12-19T04:26:31;55.53;;;22.35;;
38851;SDS011;24605;50.092;9.182;2022-12-19T04:28:59;48.80;;;21.10;;
38851;SDS011;24605;50.092;9.182;2022-12-19T04:31:27;56.17;;;22.95;;
38851;SDS011;24605;50.092;9.182;2022-12-19T04:33:54;53.78;;;21.88;;
38851;SDS011;24605;50.092;9.182;2022-12-19T04:36:20;57.67;;;22.48;;
38851;SDS011;24605;50.092;9.182;2022-12-19T04:38:48;55.80;;;23.30;;
38851;SDS011;24605;50.092;9.182;2022-12-19T04:41:15;57.83;;;22.77;;
38851;SDS011;24605;50.092;9.182;2022-12-19T04:43:41;52.95;;;22.27;;
38851;SDS011;24605;50.092;9.182;2022-12-19T04:46:08;56.42;;;21.45;;
38851;SDS011;24605;50.092;9.182;2022-12-19T04:48:34;51.13;;;21.75;;
38851;SDS011;24605;50.092;9.182;2022-12-19T04:51:01;53.80;;;22.10;;
38851;SDS011;24605;50.092;9.182;2022-12-19T04:53:28;58.75;;;23.92;;
38851;SDS011;24605;50.092;9.182;2022-12-19T04:56:00;52.22;;;23.17;;
38851;SDS011;24605;50.092;9.182;2022-12-19T04:58:26;53.10;;;22.10;;
38851;SDS011;24605;50.092;9.182;2022-12-19T05:00:53;83.63;;;24.35;;
38851;SDS011;24605;50.092;9.182;2022-12-19T05:03:19;60.22;;;24.17;;
38851;SDS011;24605;50.092;9.182;2022-12-19T05:05:46;60.40;;;27.25;;
38851;SDS011;24605;50.092;9.182;2022-12-19T05:08:12;57.78;;;24.63;;
38851;SDS011;24605;50.092;9.182;2022-12-19T05:10:39;55.95;;;22.08;;
38851;SDS011;24605;50.092;9.182;2022-12-19T05:13:06;63.88;;;24.40;;
38851;SDS011;24605;50.092;9.182;2022-12-19T05:15:33;60.63;;;25.08;;
38851;SDS011;24605;50.092;9.182;2022-12-19T05:18:00;56.97;;;23.95;;
38851;SDS011;24605;50.092;9.182;2022-12-19T05:20:26;55.28;;;24.15;;
38851;SDS011;24605;50.092;9.182;2022-12-19T05:22:53;61.63;;;23.45;;
38851;SDS011;24605;50.092;9.182;2022-12-19T05:25:19;52.75;;;22.08;;
38851;SDS011;24605;50.092;9.182;2022-12-19T05:27:46;56.35;;;23.17;;
38851;SDS011;24605;50.092;9.182;2022-12-19T05:30:14;55.97;;;23.20;;
38851;SDS011;24605;50.092;9.182;2022-12-19T05:32:40;59.30;;;23.92;;
38851;SDS011;24605;50.092;9.182;2022-12-19T05:35:07;61.08;;;24.33;;
38851;SDS011;24605;50.092;9.182;2022-12-19T05:37:33;58.53;;;23.85;;
38851;SDS011;24605;50.092;9.182;2022-12-19T05:40:00;62.97;;;25.48;;
38851;SDS011;24605;50.092;9.182;2022-12-19T05:42:26;56.50;;;23.83;;
38851;SDS011;24605;50.092;9.182;2022-12-19T05:44:53;54.95;;;23.35;;
38851;SDS011;24605;50.092;9.182;2022-12-19T05:47:21;56.65;;;22.90;;
38851;SDS011;24605;50.092;9.182;2022-12-19T05:49:47;59.17;;;23.83;;
38851;SDS011;24605;50.092;9.182;2022-12-19T05:52:14;58.03;;;23.00;;
38851;SDS011;24605;50.092;9.182;2022-12-19T05:54:40;54.00;;;23.23;;
38851;SDS011;24605;50.092;9.182;2022-12-19T05:57:07;51.72;;;23.08;;
38851;SDS011;24605;50.092;9.182;2022-12-19T05:59:33;58.00;;;22.83;;
38851;SDS011;24605;50.092;9.182;2022-12-19T06:02:00;58.15;;;23.27;;
38851;SDS011;24605;50.092;9.182;2022-12-19T06:04:29;59.97;;;23.50;;
38851;SDS011;24605;50.092;9.182;2022-12-19T06:06:55;52.80;;;23.35;;
38851;SDS011;24605;50.092;9.182;2022-12-19T06:09:25;53.67;;;23.23;;
38851;SDS011;24605;50.092;9.182;2022-12-19T06:11:51;58.50;;;23.67;;
38851;SDS011;24605;50.092;9.182;2022-12-19T06:14:18;62.05;;;23.77;;
38851;SDS011;24605;50.092;9.182;2022-12-19T06:16:44;58.42;;;23.35;;
38851;SDS011;24605;50.092;9.182;2022-12-19T06:19:11;54.03;;;22.73;;
38851;SDS011;24605;50.092;9.182;2022-12-19T06:21:39;55.08;;;24.92;;
38851;SDS011;24605;50.092;9.182;2022-12-19T06:24:06;58.65;;;24.73;;
38851;SDS011;24605;50.092;9.182;2022-12-19T06:26:33;58.40;;;23.10;;
38851;SDS011;24605;50.092;9.182;2022-12-19T06:28:59;56.70;;;22.45;;
38851;SDS011;24605;50.092;9.182;2022-12-19T06:31:26;57.92;;;23.48;;
38851;SDS011;24605;50.092;9.182;2022-12-19T06:33:53;57.03;;;23.52;;
38851;SDS011;24605;50.092;9.182;2022-12-19T06:36:21;61.35;;;24.75;;
38851;SDS011;24605;50.092;9.182;2022-12-19T06:38:50;56.97;;;23.67;;
38851;SDS011;24605;50.092;9.182;2022-12-19T06:41:18;55.72;;;23.55;;
38851;SDS011;24605;50.092;9.182;2022-12-19T06:46:31;51.58;;;21.92;;
38851;SDS011;24605;50.092;9.182;2022-12-19T06:48:58;54.33;;;23.15;;
38851;SDS011;24605;50.092;9.182;2022-12-19T06:51:24;55.47;;;23.45;;
38851;SDS011;24605;50.092;9.182;2022-12-19T06:53:52;53.38;;;22.35;;
38851;SDS011;24605;50.092;9.182;2022-12-19T06:56:19;54.10;;;22.00;;
38851;SDS011;24605;50.092;9.182;2022-12-19T06:58:46;56.47;;;23.23;;
38851;SDS011;24605;50.092;9.182;2022-12-19T07:01:16;57.42;;;23.08;;
38851;SDS011;24605;50.092;9.182;2022-12-19T07:03:43;52.90;;;22.05;;
38851;SDS011;24605;50.092;9.182;2022-12-19T07:06:11;55.63;;;23.75;;
38851;SDS011;24605;50.092;9.182;2022-12-19T07:08:38;53.55;;;22.75;;
38851;SDS011;24605;50.092;9.182;2022-12-19T07:11:06;56.90;;;23.35;;
38851;SDS011;24605;50.092;9.182;2022-12-19T07:13:32;59.30;;;23.85;;
38851;SDS011;24605;50.092;9.182;2022-12-19T07:16:00;57.38;;;23.65;;
38851;SDS011;24605;50.092;9.182;2022-12-19T07:18:29;54.03;;;22.17;;
38851;SDS011;24605;50.092;9.182;2022-12-19T07:21:01;57.17;;;23.30;;
38851;SDS011;24605;50.092;9.182;2022-12-19T07:23:28;62.08;;;25.17;;
38851;SDS011;24605;50.092;9.182;2022-12-19T07:25:55;58.72;;;23.90;;
38851;SDS011;24605;50.092;9.182;2022-12-19T07:28:23;55.22;;;23.27;;
38851;SDS011;24605;50.092;9.182;2022-12-19T07:30:50;53.85;;;22.15;;
38851;SDS011;24605;50.092;9.182;2022-12-19T07:33:16;54.42;;;23.55;;
38851;SDS011;24605;50.092;9.182;2022-12-19T07:35:43;56.17;;;25.40;;
38851;SDS011;24605;50.092;9.182;2022-12-19T07:38:09;60.00;;;24.88;;
38851;SDS011;24605;50.092;9.182;2022-12-19T07:40:36;54.58;;;22.50;;
38851;SDS011;24605;50.092;9.182;2022-12-19T07:43:03;57.58;;;23.75;;
38851;SDS011;24605;50.092;9.182;2022-12-19T07:45:32;55.15;;;23.92;;
38851;SDS011;24605;50.092;9.182;2022-12-19T07:48:01;53.22;;;22.63;;
38851;SDS011;24605;50.092;9.182;2022-12-19T07:50:28;53.53;;;23.00;;
38851;SDS011;24605;50.092;9.182;2022-12-19T07:52:55;57.20;;;23.45;;
38851;SDS011;24605;50.092;9.182;2022-12-19T07:55:23;57.05;;;22.95;;
38851;SDS011;24605;50.092;9.182;2022-12-19T07:57:49;52.03;;;22.73;;
38851;SDS011;24605;50.092;9.182;2022-12-19T08:00:16;50.60;;;21.70;;
38851;SDS011;24605;50.092;9.182;2022-12-19T08:02:44;52.45;;;22.42;;
38851;SDS011;24605;50.092;9.182;2022-12-19T08:05:11;57.88;;;23.60;;
38851;SDS011;24605;50.092;9.182;2022-12-19T08:07:38;52.58;;;22.75;;
38851;SDS011;24605;50.092;9.182;2022-12-19T08:10:05;56.28;;;23.42;;
38851;SDS011;24605;50.092;9.182;2022-12-19T08:12:32;51.92;;;21.50;;
38851;SDS011;24605;50.092;9.182;2022-12-19T08:14:59;50.33;;;21.63;;
38851;SDS011;24605;50.092;9.182;2022-12-19T08:17:25;50.28;;;21.38;;
38851;SDS011;24605;50.092;9.182;2022-12-19T08:19:53;46.88;;;21.02;;
38851;SDS011;24605;50.092;9.182;2022-12-19T08:22:19;52.95;;;21.85;;
38851;SDS011;24605;50.092;9.182;2022-12-19T08:24:46;53.97;;;22.33;;
38851;SDS011;24605;50.092;9.182;2022-12-19T08:27:14;51.05;;;21.55;;
38851;SDS011;24605;50.092;9.182;2022-12-19T08:29:40;77.30;;;29.95;;
38851;SDS011;24605;50.092;9.182;2022-12-19T08:32:07;53.58;;;23.20;;
38851;SDS011;24605;50.092;9.182;2022-12-19T08:34:34;65.38;;;29.33;;
38851;SDS011;24605;50.092;9.182;2022-12-19T08:37:02;67.30;;;30.10;;
38851;SDS011;24605;50.092;9.182;2022-12-19T08:39:28;58.25;;;25.35;;
38851;SDS011;24605;50.092;9.182;2022-12-19T08:41:57;66.35;;;28.73;;
38851;SDS011;24605;50.092;9.182;2022-12-19T08:44:24;52.40;;;24.38;;
38851;SDS011;24605;50.092;9.182;2022-12-19T08:46:51;52.90;;;23.92;;
38851;SDS011;24605;50.092;9.182;2022-12-19T08:49:17;53.80;;;23.40;;
38851;SDS011;24605;50.092;9.182;2022-12-19T08:51:44;80.93;;;37.20;;
38851;SDS011;24605;50.092;9.182;2022-12-19T08:54:12;65.63;;;29.15;;
38851;SDS011;24605;50.092;9.182;2022-12-19T08:56:39;82.05;;;33.70;;
38851;SDS011;24605;50.092;9.182;2022-12-19T08:59:05;68.65;;;29.75;;
38851;SDS011;24605;50.092;9.182;2022-12-19T09:01:32;69.40;;;30.67;;
38851;SDS011;24605;50.092;9.182;2022-12-19T09:03:58;63.83;;;25.25;;
38851;SDS011;24605;50.092;9.182;2022-12-19T09:06:25;53.65;;;24.50;;
38851;SDS011;24605;50.092;9.182;2022-12-19T09:08:52;50.70;;;22.33;;
38851;SDS011;24605;50.092;9.182;2022-12-19T09:11:20;55.42;;;24.23;;
38851;SDS011;24605;50.092;9.182;2022-12-19T09:13:46;53.88;;;24.05;;
38851;SDS011;24605;50.092;9.182;2022-12-19T09:16:14;52.08;;;22.83;;
38851;SDS011;24605;50.092;9.182;2022-12-19T09:18:42;49.08;;;22.15;;
38851;SDS011;24605;50.092;9.182;2022-12-19T09:21:10;50.00;;;22.15;;
38851;SDS011;24605;50.092;9.182;2022-12-19T09:23:37;51.00;;;23.40;;
38851;SDS011;24605;50.092;9.182;2022-12-19T09:26:05;47.80;;;21.27;;
38851;SDS011;24605;50.092;9.182;2022-12-19T09:28:34;46.22;;;21.33;;
38851;SDS011;24605;50.092;9.182;2022-12-19T09:31:02;50.83;;;22.90;;
38851;SDS011;24605;50.092;9.182;2022-12-19T09:33:31;66.35;;;28.80;;
38851;SDS011;24605;50.092;9.182;2022-12-19T09:35:59;51.47;;;23.23;;
38851;SDS011;24605;50.092;9.182;2022-12-19T09:38:27;51.28;;;22.48;;
38851;SDS011;24605;50.092;9.182;2022-12-19T09:40:58;50.47;;;22.48;;
38851;SDS011;24605;50.092;9.182;2022-12-19T09:43:45;50.15;;;22.73;;
38851;SDS011;24605;50.092;9.182;2022-12-19T09:46:21;51.80;;;21.92;;
38851;SDS011;24605;50.092;9.182;2022-12-19T09:49:00;50.88;;;21.80;;
38851;SDS011;24605;50.092;9.182;2022-12-19T09:51:29;48.17;;;23.38;;
38851;SDS011;24605;50.092;9.182;2022-12-19T09:54:01;51.42;;;24.25;;
38851;SDS011;24605;50.092;9.182;2022-12-19T09:56:32;51.58;;;22.25;;
38851;SDS011;24605;50.092;9.182;2022-12-19T09:59:04;51.17;;;22.27;;
38851;SDS011;24605;50.092;9.182;2022-12-19T10:01:39;48.22;;;22.80;;
38851;SDS011;24605;50.092;9.182;2022-12-19T10:04:15;51.25;;;23.67;;
38851;SDS011;24605;50.092;9.182;2022-12-19T10:06:43;49.33;;;23.00;;
38851;SDS011;24605;50.092;9.182;2022-12-19T10:09:11;47.83;;;22.58;;
38851;SDS011;24605;50.092;9.182;2022-12-19T10:11:46;49.03;;;23.15;;
38851;SDS011;24605;50.092;9.182;2022-12-19T10:14:28;45.58;;;21.23;;
38851;SDS011;24605;50.092;9.182;2022-12-19T10:17:02;49.28;;;23.02;;
38851;SDS011;24605;50.092;9.182;2022-12-19T10:22:12;47.25;;;20.77;;
38851;SDS011;24605;50.092;9.182;2022-12-19T10:24:50;48.53;;;21.23;;
38851;SDS011;24605;50.092;9.182;2022-12-19T10:27:27;46.35;;;21.35;;
38851;SDS011;24605;50.092;9.182;2022-12-19T10:30:02;46.45;;;20.55;;
38851;SDS011;24605;50.092;9.182;2022-12-19T10:32:39;49.67;;;22.17;;
38851;SDS011;24605;50.092;9.182;2022-12-19T10:35:14;49.53;;;22.15;;
38851;SDS011;24605;50.092;9.182;2022-12-19T10:37:44;46.22;;;21.83;;
38851;SDS011;24605;50.092;9.182;2022-12-19T10:40:18;46.00;;;21.10;;
38851;SDS011;24605;50.092;9.182;2022-12-19T10:42:52;50.78;;;22.10;;
38851;SDS011;24605;50.092;9.182;2022-12-19T10:45:23;53.17;;;23.33;;
38851;SDS011;24605;50.092;9.182;2022-12-19T10:47:56;50.35;;;23.20;;
38851;SDS011;24605;50.092;9.182;2022-12-19T10:50:23;50.83;;;23.67;;
38851;SDS011;24605;50.092;9.182;2022-12-19T10:52:52;48.72;;;22.60;;
38851;SDS011;24605;50.092;9.182;2022-12-19T10:55:21;47.72;;;21.90;;
38851;SDS011;24605;50.092;9.182;2022-12-19T10:57:56;53.78;;;24.30;;
38851;SDS011;24605;50.092;9.182;2022-12-19T11:00:25;52.33;;;23.83;;
38851;SDS011;24605;50.092;9.182;2022-12-19T11:03:03;46.38;;;21.30;;
38851;SDS011;24605;50.092;9.182;2022-12-19T11:05:38;48.53;;;22.00;;
38851;SDS011;24605;50.092;9.182;2022-12-19T11:08:12;51.38;;;22.55;;
38851;SDS011;24605;50.092;9.182;2022-12-19T11:10:44;52.58;;;22.77;;
38851;SDS011;24605;50.092;9.182;2022-12-19T11:13:23;50.67;;;23.58;;
38851;SDS011;24605;50.092;9.182;2022-12-19T11:15:53;50.83;;;24.40;;
38851;SDS011;24605;50.092;9.182;2022-12-19T11:18:20;51.85;;;22.50;;
38851;SDS011;24605;50.092;9.182;2022-12-19T11:20:55;53.35;;;22.98;;
38851;SDS011;24605;50.092;9.182;2022-12-19T11:23:24;48.22;;;22.83;;
38851;SDS011;24605;50.092;9.182;2022-12-19T11:25:53;46.90;;;22.33;;
38851;SDS011;24605;50.092;9.182;2022-12-19T11:28:26;52.42;;;23.00;;
38851;SDS011;24605;50.092;9.182;2022-12-19T11:30:59;53.63;;;22.77;;
38851;SDS011;24605;50.092;9.182;2022-12-19T11:33:29;56.70;;;23.63;;
38851;SDS011;24605;50.092;9.182;2022-12-19T11:35:57;49.45;;;24.58;;
38851;SDS011;24605;50.092;9.182;2022-12-19T11:38:35;48.67;;;22.00;;
38851;SDS011;24605;50.092;9.182;2022-12-19T11:41:09;49.95;;;23.58;;
38851;SDS011;24605;50.092;9.182;2022-12-19T11:46:11;48.05;;;21.75;;
38851;SDS011;24605;50.092;9.182;2022-12-19T11:48:48;52.47;;;23.45;;
38851;SDS011;24605;50.092;9.182;2022-12-19T11:51:19;53.35;;;24.33;;
38851;SDS011;24605;50.092;9.182;2022-12-19T11:53:55;56.63;;;24.65;;
38851;SDS011;24605;50.092;9.182;2022-12-19T11:56:29;50.70;;;24.20;;
38851;SDS011;24605;50.092;9.182;2022-12-19T11:58:56;53.08;;;24.23;;
38851;SDS011;24605;50.092;9.182;2022-12-19T12:01:34;54.65;;;23.40;;
38851;SDS011;24605;50.092;9.182;2022-12-19T12:04:11;53.35;;;24.25;;
38851;SDS011;24605;50.092;9.182;2022-12-19T12:06:51;53.65;;;24.85;;
38851;SDS011;24605;50.092;9.182;2022-12-19T12:09:22;57.78;;;24.75;;
38851;SDS011;24605;50.092;9.182;2022-12-19T12:11:58;52.53;;;24.70;;
38851;SDS011;24605;50.092;9.182;2022-12-19T12:14:32;52.90;;;24.17;;
38851;SDS011;24605;50.092;9.182;2022-12-19T12:17:21;50.60;;;23.33;;
38851;SDS011;24605;50.092;9.182;2022-12-19T12:20:02;49.65;;;22.35;;
38851;SDS011;24605;50.092;9.182;2022-12-19T12:22:46;55.30;;;26.20;;
38851;SDS011;24605;50.092;9.182;2022-12-19T12:25:28;60.67;;;28.98;;
38851;SDS011;24605;50.092;9.182;2022-12-19T12:28:05;58.92;;;27.80;;
38851;SDS011;24605;50.092;9.182;2022-12-19T12:30:46;55.78;;;25.02;;
38851;SDS011;24605;50.092;9.182;2022-12-19T12:33:23;53.10;;;24.05;;
38851;SDS011;24605;50.092;9.182;2022-12-19T12:35:56;59.65;;;25.10;;
38851;SDS011;24605;50.092;9.182;2022-12-19T12:38:35;52.40;;;23.23;;
38851;SDS011;24605;50.092;9.182;2022-12-19T12:41:23;54.05;;;23.55;;
38851;SDS011;24605;50.092;9.182;2022-12-19T12:44:10;54.85;;;23.38;;
38851;SDS011;24605;50.092;9.182;2022-12-19T12:46:38;49.22;;;23.67;;
38851;SDS011;24605;50.092;9.182;2022-12-19T12:49:16;53.15;;;24.60;;
38851;SDS011;24605;50.092;9.182;2022-12-19T12:51:49;54.20;;;24.27;;
38851;SDS011;24605;50.092;9.182;2022-12-19T12:54:16;56.85;;;26.05;;
38851;SDS011;24605;50.092;9.182;2022-12-19T12:56:44;53.28;;;23.05;;
38851;SDS011;24605;50.092;9.182;2022-12-19T12:59:19;54.10;;;25.75;;
38851;SDS011;24605;50.092;9.182;2022-12-19T13:01:49;56.97;;;25.65;;
38851;SDS011;24605;50.092;9.182;2022-12-19T13:04:20;50.33;;;24.27;;
38851;SDS011;24605;50.092;9.182;2022-12-19T13:07:03;57.70;;;26.08;;
38851;SDS011;24605;50.092;9.182;2022-12-19T13:09:51;57.03;;;26.17;;
38851;SDS011;24605;50.092;9.182;2022-12-19T13:12:29;59.33;;;23.88;;
38851;SDS011;24605;50.092;9.182;2022-12-19T13:15:18;59.63;;;25.73;;
38851;SDS011;24605;50.092;9.182;2022-12-19T13:18:00;60.40;;;25.70;;
38851;SDS011;24605;50.092;9.182;2022-12-19T13:20:42;62.83;;;27.83;;
38851;SDS011;24605;50.092;9.182;2022-12-19T13:23:21;68.85;;;31.08;;
38851;SDS011;24605;50.092;9.182;2022-12-19T13:25:57;61.55;;;28.17;;
38851;SDS011;24605;50.092;9.182;2022-12-19T13:31:15;63.13;;;27.15;;
38851;SDS011;24605;50.092;9.182;2022-12-19T13:33:45;60.03;;;26.40;;
38851;SDS011;24605;50.092;9.182;2022-12-19T13:39:29;63.42;;;28.35;;
38851;SDS011;24605;50.092;9.182;2022-12-19T13:42:01;58.45;;;26.20;;
38851;SDS011;24605;50.092;9.182;2022-12-19T13:44:54;59.20;;;25.55;;
38851;SDS011;24605;50.092;9.182;2022-12-19T13:47:23;59.63;;;26.40;;
38851;SDS011;24605;50.092;9.182;2022-12-19T13:49:54;55.45;;;24.67;;
38851;SDS011;24605;50.092;9.182;2022-12-19T13:52:23;56.67;;;24.75;;
38851;SDS011;24605;50.092;9.182;2022-12-19T13:54:50;55.60;;;25.40;;
38851;SDS011;24605;50.092;9.182;2022-12-19T13:57:22;59.72;;;26.90;;
38851;SDS011;24605;50.092;9.182;2022-12-19T13:59:50;56.28;;;26.48;;
38851;SDS011;24605;50.092;9.182;2022-12-19T14:02:22;59.90;;;25.23;;
38851;SDS011;24605;50.092;9.182;2022-12-19T14:04:51;57.70;;;25.33;;
38851;SDS011;24605;50.092;9.182;2022-12-19T14:07:21;53.30;;;25.70;;
38851;SDS011;24605;50.092;9.182;2022-12-19T14:09:56;51.72;;;23.88;;
38851;SDS011;24605;50.092;9.182;2022-12-19T14:12:23;66.07;;;30.40;;
38851;SDS011;24605;50.092;9.182;2022-12-19T14:15:19;55.38;;;25.60;;
38851;SDS011;24605;50.092;9.182;2022-12-19T14:17:47;56.70;;;25.42;;
38851;SDS011;24605;50.092;9.182;2022-12-19T14:20:16;57.42;;;25.60;;
38851;SDS011;24605;50.092;9.182;2022-12-19T14:22:46;52.20;;;26.27;;
38851;SDS011;24605;50.092;9.182;2022-12-19T14:25:12;59.58;;;28.92;;
38851;SDS011;24605;50.092;9.182;2022-12-19T14:27:40;58.72;;;27.70;;
38851;SDS011;24605;50.092;9.182;2022-12-19T14:30:14;54.25;;;25.95;;
38851;SDS011;24605;50.092;9.182;2022-12-19T14:35:14;60.40;;;25.33;;
38851;SDS011;24605;50.092;9.182;2022-12-19T14:37:44;58.10;;;26.05;;
38851;SDS011;24605;50.092;9.182;2022-12-19T14:40:18;58.70;;;25.30;;
38851;SDS011;24605;50.092;9.182;2022-12-19T14:42:47;58.38;;;25.52;;
38851;SDS011;24605;50.092;9.182;2022-12-19T14:45:34;57.42;;;26.23;;
38851;SDS011;24605;50.092;9.182;2022-12-19T14:51:00;60.97;;;26.38;;
38851;SDS011;24605;50.092;9.182;2022-12-19T14:53:30;58.38;;;27.25;;
38851;SDS011;24605;50.092;9.182;2022-12-19T14:56:00;57.50;;;26.02;;
38851;SDS011;24605;50.092;9.182;2022-12-19T14:58:30;66.43;;;28.80;;
38851;SDS011;24605;50.092;9.182;2022-12-19T15:00:59;63.72;;;28.17;;
38851;SDS011;24605;50.092;9.182;2022-12-19T15:03:27;63.42;;;27.52;;
38851;SDS011;24605;50.092;9.182;2022-12-19T15:06:04;65.75;;;28.15;;
38851;SDS011;24605;50.092;9.182;2022-12-19T15:08:34;63.33;;;26.73;;